Wednesday, February 22, 2017, 12:23 PM EST

KSBY, Salisbury-wicomico Cty Reg

Location: Salisbury, MD, United States Lat: 38.333
Local Time: 12:23 PM EST (17:23 GMT) Lon: -75.5
Time Zone: US/Eastern Elev: 52 ft

Show me the last for .
Show Decoded

2017-02-22 11:54 METAR KSBY 221654Z 24007KT 10SM BKN029 BKN055 15/10 A3000 RMK AO2 SLP162
                 T01500100 =
2017-02-22 10:54 METAR KSBY 221554Z 21009KT 10SM SCT032 BKN120 14/10 A3003 RMK AO2 SLP172
                 T01390100 =
2017-02-22 09:54 METAR KSBY 221454Z 23004KT 10SM SCT033 SCT065 13/10 A3005 RMK AO2 SLP176
                 T01280100 58001 =
2017-02-22 08:54 METAR KSBY 221354Z 21005KT 10SM FEW006 BKN031 BKN038 09/09 A3006 RMK AO2 SLP181
                 T00940089 =
2017-02-22 07:54 METAR KSBY 221254Z 00000KT 10SM CLR 07/07 A3006 RMK AO2 SLP182 T00720072 =
2017-02-22 06:54 METAR KSBY 221154Z 00000KT 10SM CLR 06/06 A3005 RMK AO2 SLP179 T00610061 10072
                 20028 56003 =
2017-02-22 05:54 METAR KSBY 221054Z 00000KT 10SM CLR 06/06 A3005 RMK AO2 SLP178 T00610056 =
2017-02-22 04:54 METAR KSBY 220954Z AUTO VRB03KT 10SM CLR 07/06 A3006 RMK AO2 SLP179 T00670061
                 TSNO =
2017-02-22 03:54 METAR KSBY 220854Z AUTO 00000KT 10SM CLR 05/04 A3006 RMK AO2 SLP180 T00500044
                 56022 TSNO =
2017-02-22 02:54 METAR KSBY 220754Z AUTO 00000KT 10SM CLR 04/03 A3007 RMK AO2 SLP183 T00390028
                 TSNO =
2017-02-22 01:54 METAR KSBY 220654Z AUTO 00000KT 10SM FEW050 03/03 A3009 RMK AO2 SLP192 T00330028
                 TSNO =
2017-02-22 00:54 METAR KSBY 220554Z AUTO 00000KT 10SM FEW050 04/03 A3012 RMK AO2 SLP202 T00390028
                 10061 20028 56018 TSNO =
2017-02-21 23:54 METAR KSBY 220454Z AUTO 00000KT 10SM CLR 04/03 A3013 RMK AO2 SLP206 T00390028
                 401280000 TSNO =
2017-02-21 22:54 METAR KSBY 220354Z AUTO 00000KT 10SM CLR 03/02 A3015 RMK AO2 SLP210 T00330022
                 TSNO =
2017-02-21 21:54 METAR KSBY 220254Z 00000KT 10SM CLR 04/02 A3018 RMK AO2 SLP221 T00390022 58009 =
2017-02-21 20:54 METAR KSBY 220154Z 12004KT 10SM CLR 04/02 A3019 RMK AO2 SLP227 T00390017 =
2017-02-21 19:54 METAR KSBY 220054Z 12004KT 10SM CLR 05/02 A3020 RMK AO2 SLP229 T00500022 =
2017-02-21 18:54 METAR KSBY 212354Z 14005KT 10SM CLR 06/02 A3021 RMK AO2 SLP231 T00610022 10128
                 20061 56006 =
2017-02-21 17:54 METAR KSBY 212254Z 14005KT 10SM CLR 08/02 A3021 RMK AO2 SLP233 T00780022 =
2017-02-21 16:54 METAR KSBY 212154Z 14006KT 10SM CLR 09/03 A3021 RMK AO2 SLP233 T00890028 =
2017-02-21 15:54 METAR KSBY 212054Z 16009KT 10SM CLR 11/03 A3022 RMK AO2 SLP236 T01110028 56018 =
2017-02-21 14:54 METAR KSBY 211954Z 17008KT 10SM CLR 12/02 A3023 RMK AO2 SLP237 T01170022 =
2017-02-21 13:54 METAR KSBY 211854Z 19007KT 10SM CLR 12/02 A3025 RMK AO2 SLP245 T01220022 =
2017-02-21 12:54 METAR KSBY 211754Z VRB03G16KT 10SM CLR 12/01 A3028 RMK AO2 SLP254 T01220011
                 10122 20006 58022 =

Support USWX by starting your Amazon purchase here.